Nokomis, Canada
Current Conditions -  °F | °C
As of 8:25 AM on Thursday 30 Oct 2014 (Local Time) from CYQR Reporting Station
Light Snow Light Snow  
Wind Chill: 24°   Ceiling: 1000
Heat Index: 32°   Visibility: 2.5mi
Dew Point: 30°   Wind: 9mph
Humidity: 93%   Direction: 30°NNE
Pressure: 30.39"   Gusts: NA
Location:  51.52°N, 105.02°W
Report Text: CYQR 301425Z 03008KT 2 1/2SM -SG BR OVC010 M00/M01 A3039 RMK SC8 SLP321
Loading
Personal Weather Stations






























Interactive Weather Map
Tropical Storm Tracking
New forecast layout! Learn more

10-Day Weather Forecast

Advertisements
Track Severe Weather on mobile